sensor_id;sensor_type;location;lat;lon;timestamp;temperature;humidity
14234;DHT22;36077;53.824;9.950;2022-10-31T00:02:01;9.50;99.90
14234;DHT22;36077;53.824;9.950;2022-10-31T00:04:30;9.50;99.90
14234;DHT22;36077;53.824;9.950;2022-10-31T00:06:56;9.50;99.90
14234;DHT22;36077;53.824;9.950;2022-10-31T00:09:23;9.50;99.90
14234;DHT22;36077;53.824;9.950;2022-10-31T00:11:50;9.50;99.90
14234;DHT22;36077;53.824;9.950;2022-10-31T00:14:17;9.50;99.90
14234;DHT22;36077;53.824;9.950;2022-10-31T00:16:43;9.50;99.90
14234;DHT22;36077;53.824;9.950;2022-10-31T00:19:10;9.50;99.90
14234;DHT22;36077;53.824;9.950;2022-10-31T00:21:38;9.50;99.90
14234;DHT22;36077;53.824;9.950;2022-10-31T00:24:05;9.50;99.90
14234;DHT22;36077;53.824;9.950;2022-10-31T00:26:32;9.60;99.90
14234;DHT22;36077;53.824;9.950;2022-10-31T00:29:00;9.60;99.90
14234;DHT22;36077;53.824;9.950;2022-10-31T00:31:27;9.60;99.90
14234;DHT22;36077;53.824;9.950;2022-10-31T00:33:53;9.60;99.90
14234;DHT22;36077;53.824;9.950;2022-10-31T00:36:20;9.60;99.90
14234;DHT22;36077;53.824;9.950;2022-10-31T00:38:49;9.60;99.90
14234;DHT22;36077;53.824;9.950;2022-10-31T00:41:17;9.70;99.90
14234;DHT22;36077;53.824;9.950;2022-10-31T00:43:44;9.70;99.90
14234;DHT22;36077;53.824;9.950;2022-10-31T00:46:11;9.70;99.90
14234;DHT22;36077;53.824;9.950;2022-10-31T00:48:38;9.70;99.90
14234;DHT22;36077;53.824;9.950;2022-10-31T00:51:05;9.70;99.90
14234;DHT22;36077;53.824;9.950;2022-10-31T00:53:32;9.80;99.90
14234;DHT22;36077;53.824;9.950;2022-10-31T00:56:00;9.80;99.90
14234;DHT22;36077;53.824;9.950;2022-10-31T00:58:27;9.70;99.90
14234;DHT22;36077;53.824;9.950;2022-10-31T01:00:54;9.70;99.90
14234;DHT22;36077;53.824;9.950;2022-10-31T01:03:22;9.70;99.90
14234;DHT22;36077;53.824;9.950;2022-10-31T01:05:56;9.70;99.90
14234;DHT22;36077;53.824;9.950;2022-10-31T01:08:23;9.70;99.90
14234;DHT22;36077;53.824;9.950;2022-10-31T01:11:00;9.70;99.90
14234;DHT22;36077;53.824;9.950;2022-10-31T01:13:27;9.70;99.90
14234;DHT22;36077;53.824;9.950;2022-10-31T01:15:54;9.70;99.90
14234;DHT22;36077;53.824;9.950;2022-10-31T01:18:22;9.70;99.90
14234;DHT22;36077;53.824;9.950;2022-10-31T01:20:57;9.70;99.90
14234;DHT22;36077;53.824;9.950;2022-10-31T01:23:24;9.70;99.90
14234;DHT22;36077;53.824;9.950;2022-10-31T01:26:01;9.70;99.90
14234;DHT22;36077;53.824;9.950;2022-10-31T01:28:28;9.60;99.90
14234;DHT22;36077;53.824;9.950;2022-10-31T01:30:54;9.60;99.90
14234;DHT22;36077;53.824;9.950;2022-10-31T01:33:21;9.60;99.90
14234;DHT22;36077;53.824;9.950;2022-10-31T01:35:48;9.60;99.90
14234;DHT22;36077;53.824;9.950;2022-10-31T01:38:15;9.60;99.90
14234;DHT22;36077;53.824;9.950;2022-10-31T01:40:41;9.60;99.90
14234;DHT22;36077;53.824;9.950;2022-10-31T01:43:13;9.70;99.90
14234;DHT22;36077;53.824;9.950;2022-10-31T01:45:40;9.70;99.90
14234;DHT22;36077;53.824;9.950;2022-10-31T01:48:12;9.70;99.90
14234;DHT22;36077;53.824;9.950;2022-10-31T01:50:40;9.80;99.90
14234;DHT22;36077;53.824;9.950;2022-10-31T01:53:08;9.80;99.90
14234;DHT22;36077;53.824;9.950;2022-10-31T01:55:38;9.90;99.90
14234;DHT22;36077;53.824;9.950;2022-10-31T01:58:09;9.90;99.90
14234;DHT22;36077;53.824;9.950;2022-10-31T02:00:39;9.90;99.90
14234;DHT22;36077;53.824;9.950;2022-10-31T02:03:08;10.00;99.90
14234;DHT22;36077;53.824;9.950;2022-10-31T02:05:36;10.00;99.90
14234;DHT22;36077;53.824;9.950;2022-10-31T02:08:06;10.00;99.90
14234;DHT22;36077;53.824;9.950;2022-10-31T02:10:36;10.00;99.90
14234;DHT22;36077;53.824;9.950;2022-10-31T02:13:05;10.10;99.90
14234;DHT22;36077;53.824;9.950;2022-10-31T02:15:33;10.10;99.90
14234;DHT22;36077;53.824;9.950;2022-10-31T02:18:03;10.10;99.90
14234;DHT22;36077;53.824;9.950;2022-10-31T02:20:34;10.20;99.90
14234;DHT22;36077;53.824;9.950;2022-10-31T02:26:49;10.20;99.90
14234;DHT22;36077;53.824;9.950;2022-10-31T02:32:41;10.40;99.90
14234;DHT22;36077;53.824;9.950;2022-10-31T02:35:14;10.40;99.90
14234;DHT22;36077;53.824;9.950;2022-10-31T02:37:48;10.50;99.90
14234;DHT22;36077;53.824;9.950;2022-10-31T02:40:21;10.50;99.90
14234;DHT22;36077;53.824;9.950;2022-10-31T02:42:55;10.60;99.90
14234;DHT22;36077;53.824;9.950;2022-10-31T02:45:29;10.60;99.90
14234;DHT22;36077;53.824;9.950;2022-10-31T02:48:00;10.70;99.90
14234;DHT22;36077;53.824;9.950;2022-10-31T02:50:30;10.70;99.90
14234;DHT22;36077;53.824;9.950;2022-10-31T02:52:57;10.80;99.90
14234;DHT22;36077;53.824;9.950;2022-10-31T02:55:47;10.90;99.90
14234;DHT22;36077;53.824;9.950;2022-10-31T02:58:18;11.00;99.90
14234;DHT22;36077;53.824;9.950;2022-10-31T03:01:05;11.20;99.90
14234;DHT22;36077;53.824;9.950;2022-10-31T03:03:37;11.20;99.90
14234;DHT22;36077;53.824;9.950;2022-10-31T03:06:14;11.20;99.90
14234;DHT22;36077;53.824;9.950;2022-10-31T03:08:50;11.30;99.90
14234;DHT22;36077;53.824;9.950;2022-10-31T03:11:24;11.30;99.90
14234;DHT22;36077;53.824;9.950;2022-10-31T03:13:57;11.30;99.90
14234;DHT22;36077;53.824;9.950;2022-10-31T03:16:31;11.30;99.90
14234;DHT22;36077;53.824;9.950;2022-10-31T03:19:03;11.40;99.90
14234;DHT22;36077;53.824;9.950;2022-10-31T03:21:35;11.40;99.90
14234;DHT22;36077;53.824;9.950;2022-10-31T03:24:05;11.40;99.90
14234;DHT22;36077;53.824;9.950;2022-10-31T03:26:35;11.40;99.90
14234;DHT22;36077;53.824;9.950;2022-10-31T03:29:04;11.40;99.90
14234;DHT22;36077;53.824;9.950;2022-10-31T03:31:34;11.40;99.90
14234;DHT22;36077;53.824;9.950;2022-10-31T03:34:04;11.30;99.90
14234;DHT22;36077;53.824;9.950;2022-10-31T03:36:34;11.30;99.90
14234;DHT22;36077;53.824;9.950;2022-10-31T03:39:04;11.30;99.90
14234;DHT22;36077;53.824;9.950;2022-10-31T03:41:35;11.20;99.90
14234;DHT22;36077;53.824;9.950;2022-10-31T03:44:07;11.20;99.90
14234;DHT22;36077;53.824;9.950;2022-10-31T03:46:35;11.20;99.90
14234;DHT22;36077;53.824;9.950;2022-10-31T03:49:03;11.10;99.90
14234;DHT22;36077;53.824;9.950;2022-10-31T03:51:34;11.10;99.90
14234;DHT22;36077;53.824;9.950;2022-10-31T03:54:09;11.10;99.90
14234;DHT22;36077;53.824;9.950;2022-10-31T03:56:43;11.10;99.90
14234;DHT22;36077;53.824;9.950;2022-10-31T03:59:15;11.00;99.90
14234;DHT22;36077;53.824;9.950;2022-10-31T04:01:46;11.00;99.90
14234;DHT22;36077;53.824;9.950;2022-10-31T04:04:15;11.10;99.90
14234;DHT22;36077;53.824;9.950;2022-10-31T04:06:43;11.10;99.90
14234;DHT22;36077;53.824;9.950;2022-10-31T04:09:11;11.20;99.90
14234;DHT22;36077;53.824;9.950;2022-10-31T04:11:43;11.20;99.90
14234;DHT22;36077;53.824;9.950;2022-10-31T04:14:12;11.30;99.90
14234;DHT22;36077;53.824;9.950;2022-10-31T04:16:41;11.40;99.90
14234;DHT22;36077;53.824;9.950;2022-10-31T04:19:08;11.50;99.90
14234;DHT22;36077;53.824;9.950;2022-10-31T04:21:36;11.60;99.90
14234;DHT22;36077;53.824;9.950;2022-10-31T04:24:04;11.70;99.90
14234;DHT22;36077;53.824;9.950;2022-10-31T04:26:31;11.80;99.90
14234;DHT22;36077;53.824;9.950;2022-10-31T04:28:57;11.80;99.90
14234;DHT22;36077;53.824;9.950;2022-10-31T04:31:24;11.90;99.90
14234;DHT22;36077;53.824;9.950;2022-10-31T04:33:51;12.00;99.90
14234;DHT22;36077;53.824;9.950;2022-10-31T04:36:18;12.00;99.90
14234;DHT22;36077;53.824;9.950;2022-10-31T04:38:46;12.10;99.90
14234;DHT22;36077;53.824;9.950;2022-10-31T04:41:13;12.10;99.90
14234;DHT22;36077;53.824;9.950;2022-10-31T04:43:39;12.20;99.90
14234;DHT22;36077;53.824;9.950;2022-10-31T04:46:06;12.20;99.90
14234;DHT22;36077;53.824;9.950;2022-10-31T04:48:33;12.30;99.90
14234;DHT22;36077;53.824;9.950;2022-10-31T04:51:00;12.30;99.90
14234;DHT22;36077;53.824;9.950;2022-10-31T04:53:27;12.30;99.90
14234;DHT22;36077;53.824;9.950;2022-10-31T04:55:57;12.30;99.90
14234;DHT22;36077;53.824;9.950;2022-10-31T04:58:24;12.40;99.90
14234;DHT22;36077;53.824;9.950;2022-10-31T05:00:52;12.40;99.90
14234;DHT22;36077;53.824;9.950;2022-10-31T05:03:19;12.40;99.90
14234;DHT22;36077;53.824;9.950;2022-10-31T05:05:46;12.40;99.90
14234;DHT22;36077;53.824;9.950;2022-10-31T05:08:13;12.50;99.90
14234;DHT22;36077;53.824;9.950;2022-10-31T05:10:40;12.50;99.90
14234;DHT22;36077;53.824;9.950;2022-10-31T05:13:08;12.50;99.90
14234;DHT22;36077;53.824;9.950;2022-10-31T05:15:35;12.50;99.90
14234;DHT22;36077;53.824;9.950;2022-10-31T05:18:02;12.50;99.90
14234;DHT22;36077;53.824;9.950;2022-10-31T05:20:30;12.50;99.90
14234;DHT22;36077;53.824;9.950;2022-10-31T05:22:57;12.50;99.90
14234;DHT22;36077;53.824;9.950;2022-10-31T05:25:26;12.60;99.90
14234;DHT22;36077;53.824;9.950;2022-10-31T05:27:54;12.60;99.90
14234;DHT22;36077;53.824;9.950;2022-10-31T05:30:24;12.60;99.90
14234;DHT22;36077;53.824;9.950;2022-10-31T05:32:52;12.60;99.90
14234;DHT22;36077;53.824;9.950;2022-10-31T05:35:21;12.60;99.90
14234;DHT22;36077;53.824;9.950;2022-10-31T05:37:49;12.60;99.90
14234;DHT22;36077;53.824;9.950;2022-10-31T05:40:17;12.60;99.90
14234;DHT22;36077;53.824;9.950;2022-10-31T05:42:45;12.60;99.90
14234;DHT22;36077;53.824;9.950;2022-10-31T05:45:14;12.60;99.90
14234;DHT22;36077;53.824;9.950;2022-10-31T05:47:50;12.60;99.90
14234;DHT22;36077;53.824;9.950;2022-10-31T05:50:16;12.60;99.90
14234;DHT22;36077;53.824;9.950;2022-10-31T05:52:43;12.60;99.90
14234;DHT22;36077;53.824;9.950;2022-10-31T05:55:10;12.60;99.90
14234;DHT22;36077;53.824;9.950;2022-10-31T05:57:37;12.50;99.90
14234;DHT22;36077;53.824;9.950;2022-10-31T06:00:05;12.50;99.90
14234;DHT22;36077;53.824;9.950;2022-10-31T06:02:32;12.50;99.90
14234;DHT22;36077;53.824;9.950;2022-10-31T06:05:01;12.50;99.90
14234;DHT22;36077;53.824;9.950;2022-10-31T06:07:32;12.50;99.90
14234;DHT22;36077;53.824;9.950;2022-10-31T06:09:59;12.50;99.90
14234;DHT22;36077;53.824;9.950;2022-10-31T06:12:26;12.50;99.90
14234;DHT22;36077;53.824;9.950;2022-10-31T06:14:53;12.50;99.90
14234;DHT22;36077;53.824;9.950;2022-10-31T06:17:20;12.50;99.90
14234;DHT22;36077;53.824;9.950;2022-10-31T06:19:46;12.50;99.90
14234;DHT22;36077;53.824;9.950;2022-10-31T06:22:15;12.50;99.90
14234;DHT22;36077;53.824;9.950;2022-10-31T06:24:41;12.50;99.90
14234;DHT22;36077;53.824;9.950;2022-10-31T06:27:08;12.50;99.90
14234;DHT22;36077;53.824;9.950;2022-10-31T06:29:35;12.50;99.90
14234;DHT22;36077;53.824;9.950;2022-10-31T06:32:01;12.50;99.90
14234;DHT22;36077;53.824;9.950;2022-10-31T06:34:28;12.50;99.90
14234;DHT22;36077;53.824;9.950;2022-10-31T06:36:55;12.50;99.90
14234;DHT22;36077;53.824;9.950;2022-10-31T06:39:23;12.50;99.90
14234;DHT22;36077;53.824;9.950;2022-10-31T06:41:50;12.50;99.90
14234;DHT22;36077;53.824;9.950;2022-10-31T06:44:17;12.50;99.90
14234;DHT22;36077;53.824;9.950;2022-10-31T06:46:45;12.50;99.90
14234;DHT22;36077;53.824;9.950;2022-10-31T06:49:12;12.60;99.90
14234;DHT22;36077;53.824;9.950;2022-10-31T06:51:39;12.60;99.90
14234;DHT22;36077;53.824;9.950;2022-10-31T06:54:06;12.60;99.90
14234;DHT22;36077;53.824;9.950;2022-10-31T06:56:34;12.60;99.90
14234;DHT22;36077;53.824;9.950;2022-10-31T06:59:01;12.60;99.90
14234;DHT22;36077;53.824;9.950;2022-10-31T07:01:27;12.60;99.90
14234;DHT22;36077;53.824;9.950;2022-10-31T07:03:54;12.60;99.90
14234;DHT22;36077;53.824;9.950;2022-10-31T07:06:21;12.60;99.90
14234;DHT22;36077;53.824;9.950;2022-10-31T07:08:48;12.60;99.90
14234;DHT22;36077;53.824;9.950;2022-10-31T07:11:15;12.60;99.90
14234;DHT22;36077;53.824;9.950;2022-10-31T07:13:43;12.60;99.90
14234;DHT22;36077;53.824;9.950;2022-10-31T07:16:10;12.60;99.90
14234;DHT22;36077;53.824;9.950;2022-10-31T07:18:39;12.60;99.90
14234;DHT22;36077;53.824;9.950;2022-10-31T07:21:06;12.60;99.90
14234;DHT22;36077;53.824;9.950;2022-10-31T07:23:33;12.60;99.90
14234;DHT22;36077;53.824;9.950;2022-10-31T07:25:59;12.60;99.90
14234;DHT22;36077;53.824;9.950;2022-10-31T07:28:27;12.60;99.90
14234;DHT22;36077;53.824;9.950;2022-10-31T07:30:56;12.60;99.90
14234;DHT22;36077;53.824;9.950;2022-10-31T07:33:23;12.60;99.90
14234;DHT22;36077;53.824;9.950;2022-10-31T07:35:51;12.60;99.90
14234;DHT22;36077;53.824;9.950;2022-10-31T07:38:18;12.60;99.90
14234;DHT22;36077;53.824;9.950;2022-10-31T07:40:49;12.60;99.90
14234;DHT22;36077;53.824;9.950;2022-10-31T07:43:16;12.60;99.90
14234;DHT22;36077;53.824;9.950;2022-10-31T07:45:43;12.60;99.90
14234;DHT22;36077;53.824;9.950;2022-10-31T07:48:11;12.60;99.90
14234;DHT22;36077;53.824;9.950;2022-10-31T07:50:38;12.60;99.90
14234;DHT22;36077;53.824;9.950;2022-10-31T07:53:07;12.50;99.90
14234;DHT22;36077;53.824;9.950;2022-10-31T07:55:34;12.50;99.90
14234;DHT22;36077;53.824;9.950;2022-10-31T07:58:03;12.50;99.90
14234;DHT22;36077;53.824;9.950;2022-10-31T08:00:30;12.60;99.90
14234;DHT22;36077;53.824;9.950;2022-10-31T08:02:58;12.60;99.90
14234;DHT22;36077;53.824;9.950;2022-10-31T08:05:27;12.60;99.90
14234;DHT22;36077;53.824;9.950;2022-10-31T08:07:54;12.60;99.90
14234;DHT22;36077;53.824;9.950;2022-10-31T08:10:21;12.60;99.90
14234;DHT22;36077;53.824;9.950;2022-10-31T08:12:55;12.60;99.90
14234;DHT22;36077;53.824;9.950;2022-10-31T08:15:22;12.60;99.90
14234;DHT22;36077;53.824;9.950;2022-10-31T08:17:49;12.60;99.90
14234;DHT22;36077;53.824;9.950;2022-10-31T08:20:16;12.60;99.90
14234;DHT22;36077;53.824;9.950;2022-10-31T08:22:52;12.70;99.90
14234;DHT22;36077;53.824;9.950;2022-10-31T08:25:19;12.70;99.90
14234;DHT22;36077;53.824;9.950;2022-10-31T08:27:49;12.70;99.90
14234;DHT22;36077;53.824;9.950;2022-10-31T08:30:16;12.70;99.90
14234;DHT22;36077;53.824;9.950;2022-10-31T08:32:43;12.70;99.90
14234;DHT22;36077;53.824;9.950;2022-10-31T08:35:09;12.70;99.90
14234;DHT22;36077;53.824;9.950;2022-10-31T08:37:36;12.80;99.90
14234;DHT22;36077;53.824;9.950;2022-10-31T08:40:06;12.80;99.90
14234;DHT22;36077;53.824;9.950;2022-10-31T08:42:33;12.80;99.90
14234;DHT22;36077;53.824;9.950;2022-10-31T08:44:59;12.80;99.90
14234;DHT22;36077;53.824;9.950;2022-10-31T08:47:26;12.80;99.90
14234;DHT22;36077;53.824;9.950;2022-10-31T08:49:54;12.80;99.90
14234;DHT22;36077;53.824;9.950;2022-10-31T08:52:23;12.90;99.90
14234;DHT22;36077;53.824;9.950;2022-10-31T08:54:50;12.90;99.90
14234;DHT22;36077;53.824;9.950;2022-10-31T08:57:18;12.90;99.90
14234;DHT22;36077;53.824;9.950;2022-10-31T08:59:45;12.90;99.90
14234;DHT22;36077;53.824;9.950;2022-10-31T09:02:12;12.90;99.90
14234;DHT22;36077;53.824;9.950;2022-10-31T09:04:39;12.90;99.90
14234;DHT22;36077;53.824;9.950;2022-10-31T09:07:06;12.90;99.90
14234;DHT22;36077;53.824;9.950;2022-10-31T09:09:32;12.90;99.90
14234;DHT22;36077;53.824;9.950;2022-10-31T09:11:59;13.00;99.90
14234;DHT22;36077;53.824;9.950;2022-10-31T09:14:27;13.00;99.90
14234;DHT22;36077;53.824;9.950;2022-10-31T09:16:54;12.90;99.90
14234;DHT22;36077;53.824;9.950;2022-10-31T09:19:21;13.00;99.90
14234;DHT22;36077;53.824;9.950;2022-10-31T09:21:52;13.00;99.90
14234;DHT22;36077;53.824;9.950;2022-10-31T09:24:18;13.00;99.90
14234;DHT22;36077;53.824;9.950;2022-10-31T09:26:45;13.00;99.90
14234;DHT22;36077;53.824;9.950;2022-10-31T09:29:12;13.00;99.90
14234;DHT22;36077;53.824;9.950;2022-10-31T09:31:40;13.00;99.90
14234;DHT22;36077;53.824;9.950;2022-10-31T09:34:07;13.00;99.90
14234;DHT22;36077;53.824;9.950;2022-10-31T09:36:33;13.00;99.90
14234;DHT22;36077;53.824;9.950;2022-10-31T09:39:03;13.00;99.90
14234;DHT22;36077;53.824;9.950;2022-10-31T09:41:41;13.00;99.90
14234;DHT22;36077;53.824;9.950;2022-10-31T09:44:19;13.10;99.90
14234;DHT22;36077;53.824;9.950;2022-10-31T09:46:55;13.10;99.90
14234;DHT22;36077;53.824;9.950;2022-10-31T09:49:35;13.10;99.90
14234;DHT22;36077;53.824;9.950;2022-10-31T09:52:11;13.20;99.90
14234;DHT22;36077;53.824;9.950;2022-10-31T09:54:44;13.20;99.90
14234;DHT22;36077;53.824;9.950;2022-10-31T09:57:14;13.10;99.90
14234;DHT22;36077;53.824;9.950;2022-10-31T09:59:44;13.10;99.90
14234;DHT22;36077;53.824;9.950;2022-10-31T10:02:22;13.20;99.90
14234;DHT22;36077;53.824;9.950;2022-10-31T10:04:54;13.20;99.90
14234;DHT22;36077;53.824;9.950;2022-10-31T10:07:30;13.30;99.90
14234;DHT22;36077;53.824;9.950;2022-10-31T10:10:01;13.30;99.90
14234;DHT22;36077;53.824;9.950;2022-10-31T10:12:40;13.30;99.90
14234;DHT22;36077;53.824;9.950;2022-10-31T10:15:28;13.20;99.90
14234;DHT22;36077;53.824;9.950;2022-10-31T10:18:07;13.20;99.90
14234;DHT22;36077;53.824;9.950;2022-10-31T10:20:43;13.30;99.90
14234;DHT22;36077;53.824;9.950;2022-10-31T10:23:29;13.30;99.90
14234;DHT22;36077;53.824;9.950;2022-10-31T10:26:02;13.30;99.90
14234;DHT22;36077;53.824;9.950;2022-10-31T10:28:36;13.40;99.90
14234;DHT22;36077;53.824;9.950;2022-10-31T10:31:09;13.40;99.90
14234;DHT22;36077;53.824;9.950;2022-10-31T10:33:43;13.40;99.90
14234;DHT22;36077;53.824;9.950;2022-10-31T10:36:13;13.40;99.90
14234;DHT22;36077;53.824;9.950;2022-10-31T10:38:48;13.40;99.90
14234;DHT22;36077;53.824;9.950;2022-10-31T10:41:17;13.40;99.90
14234;DHT22;36077;53.824;9.950;2022-10-31T10:43:50;13.40;99.90
14234;DHT22;36077;53.824;9.950;2022-10-31T10:46:18;13.30;99.90
14234;DHT22;36077;53.824;9.950;2022-10-31T10:49:21;13.40;99.90
14234;DHT22;36077;53.824;9.950;2022-10-31T10:52:08;13.40;99.90
14234;DHT22;36077;53.824;9.950;2022-10-31T10:54:43;13.40;99.90
14234;DHT22;36077;53.824;9.950;2022-10-31T10:57:27;13.40;99.90
14234;DHT22;36077;53.824;9.950;2022-10-31T10:59:58;13.40;99.90
14234;DHT22;36077;53.824;9.950;2022-10-31T11:02:29;13.40;99.90
14234;DHT22;36077;53.824;9.950;2022-10-31T11:05:00;13.40;99.90
14234;DHT22;36077;53.824;9.950;2022-10-31T11:07:38;13.40;99.90
14234;DHT22;36077;53.824;9.950;2022-10-31T11:10:06;13.40;99.90
14234;DHT22;36077;53.824;9.950;2022-10-31T11:12:38;13.40;99.90
14234;DHT22;36077;53.824;9.950;2022-10-31T11:15:08;13.50;99.90
14234;DHT22;36077;53.824;9.950;2022-10-31T11:17:48;13.50;99.90
14234;DHT22;36077;53.824;9.950;2022-10-31T11:20:29;13.50;99.90
14234;DHT22;36077;53.824;9.950;2022-10-31T11:23:17;13.50;99.90
14234;DHT22;36077;53.824;9.950;2022-10-31T11:25:56;13.50;99.90
14234;DHT22;36077;53.824;9.950;2022-10-31T11:28:23;13.50;99.90
14234;DHT22;36077;53.824;9.950;2022-10-31T11:30:52;13.50;99.90
14234;DHT22;36077;53.824;9.950;2022-10-31T11:33:24;13.60;99.90
14234;DHT22;36077;53.824;9.950;2022-10-31T11:35:53;13.50;99.90
14234;DHT22;36077;53.824;9.950;2022-10-31T11:38:23;13.50;99.90
14234;DHT22;36077;53.824;9.950;2022-10-31T11:40:52;13.50;99.90
14234;DHT22;36077;53.824;9.950;2022-10-31T11:43:20;13.60;99.90
14234;DHT22;36077;53.824;9.950;2022-10-31T11:45:47;13.60;99.90
14234;DHT22;36077;53.824;9.950;2022-10-31T11:48:16;13.60;99.90
14234;DHT22;36077;53.824;9.950;2022-10-31T11:50:49;13.60;99.90
14234;DHT22;36077;53.824;9.950;2022-10-31T11:53:20;13.60;99.90
14234;DHT22;36077;53.824;9.950;2022-10-31T11:56:04;13.60;99.90
14234;DHT22;36077;53.824;9.950;2022-10-31T11:58:31;13.50;99.90
14234;DHT22;36077;53.824;9.950;2022-10-31T12:00:58;13.50;99.90
14234;DHT22;36077;53.824;9.950;2022-10-31T12:03:43;13.60;99.90
14234;DHT22;36077;53.824;9.950;2022-10-31T12:06:16;13.60;99.90
14234;DHT22;36077;53.824;9.950;2022-10-31T12:08:47;13.60;99.90
14234;DHT22;36077;53.824;9.950;2022-10-31T12:11:27;13.60;99.90
14234;DHT22;36077;53.824;9.950;2022-10-31T12:14:08;13.60;99.90
14234;DHT22;36077;53.824;9.950;2022-10-31T12:16:44;13.70;99.90
14234;DHT22;36077;53.824;9.950;2022-10-31T12:19:21;13.80;99.90
14234;DHT22;36077;53.824;9.950;2022-10-31T12:22:07;13.80;99.90
14234;DHT22;36077;53.824;9.950;2022-10-31T12:24:48;13.80;99.90
14234;DHT22;36077;53.824;9.950;2022-10-31T12:27:26;13.80;99.90
14234;DHT22;36077;53.824;9.950;2022-10-31T12:30:17;13.80;99.90
14234;DHT22;36077;53.824;9.950;2022-10-31T12:33:11;13.80;99.90
14234;DHT22;36077;53.824;9.950;2022-10-31T12:35:44;13.80;99.90
14234;DHT22;36077;53.824;9.950;2022-10-31T12:41:21;13.80;99.90
14234;DHT22;36077;53.824;9.950;2022-10-31T12:43:56;13.80;99.90
14234;DHT22;36077;53.824;9.950;2022-10-31T12:46:32;13.80;99.90
14234;DHT22;36077;53.824;9.950;2022-10-31T12:49:20;13.80;99.90
14234;DHT22;36077;53.824;9.950;2022-10-31T12:52:00;13.80;99.90
14234;DHT22;36077;53.824;9.950;2022-10-31T12:54:55;13.80;99.90
14234;DHT22;36077;53.824;9.950;2022-10-31T12:57:29;13.90;99.90
14234;DHT22;36077;53.824;9.950;2022-10-31T13:00:00;13.90;99.90
14234;DHT22;36077;53.824;9.950;2022-10-31T13:02:32;13.90;99.90
14234;DHT22;36077;53.824;9.950;2022-10-31T13:05:02;13.90;99.90
14234;DHT22;36077;53.824;9.950;2022-10-31T13:07:34;13.80;99.90
14234;DHT22;36077;53.824;9.950;2022-10-31T13:10:07;13.90;99.90
14234;DHT22;36077;53.824;9.950;2022-10-31T13:12:37;13.90;99.90
14234;DHT22;36077;53.824;9.950;2022-10-31T13:15:14;13.90;99.90
14234;DHT22;36077;53.824;9.950;2022-10-31T13:17:45;13.90;99.90
14234;DHT22;36077;53.824;9.950;2022-10-31T13:20:19;13.90;99.90
14234;DHT22;36077;53.824;9.950;2022-10-31T13:22:48;13.90;99.90
14234;DHT22;36077;53.824;9.950;2022-10-31T13:25:18;13.90;99.90
14234;DHT22;36077;53.824;9.950;2022-10-31T13:27:51;13.90;99.90
14234;DHT22;36077;53.824;9.950;2022-10-31T13:30:20;14.00;99.90
14234;DHT22;36077;53.824;9.950;2022-10-31T13:32:51;14.00;99.90
14234;DHT22;36077;53.824;9.950;2022-10-31T13:35:26;14.00;99.90
14234;DHT22;36077;53.824;9.950;2022-10-31T13:38:04;14.00;99.90
14234;DHT22;36077;53.824;9.950;2022-10-31T13:40:38;14.00;99.90
14234;DHT22;36077;53.824;9.950;2022-10-31T13:43:18;14.00;99.90
14234;DHT22;36077;53.824;9.950;2022-10-31T13:45:51;13.90;99.90
14234;DHT22;36077;53.824;9.950;2022-10-31T13:48:33;13.90;99.90
14234;DHT22;36077;53.824;9.950;2022-10-31T13:51:02;14.00;99.90
14234;DHT22;36077;53.824;9.950;2022-10-31T13:53:40;13.90;99.90
14234;DHT22;36077;53.824;9.950;2022-10-31T13:56:17;13.90;99.90
14234;DHT22;36077;53.824;9.950;2022-10-31T13:59:03;13.80;99.90
14234;DHT22;36077;53.824;9.950;2022-10-31T14:01:31;13.80;99.90
14234;DHT22;36077;53.824;9.950;2022-10-31T14:04:06;13.90;99.90
14234;DHT22;36077;53.824;9.950;2022-10-31T14:06:39;13.90;99.90
14234;DHT22;36077;53.824;9.950;2022-10-31T14:09:18;13.90;99.90
14234;DHT22;36077;53.824;9.950;2022-10-31T14:11:46;14.00;99.90
14234;DHT22;36077;53.824;9.950;2022-10-31T14:14:15;14.00;99.90
14234;DHT22;36077;53.824;9.950;2022-10-31T14:16:44;14.00;99.90
14234;DHT22;36077;53.824;9.950;2022-10-31T14:19:16;14.00;99.90
14234;DHT22;36077;53.824;9.950;2022-10-31T14:21:44;13.90;99.90
14234;DHT22;36077;53.824;9.950;2022-10-31T14:24:30;13.90;99.90
14234;DHT22;36077;53.824;9.950;2022-10-31T14:26:58;13.90;99.90
14234;DHT22;36077;53.824;9.950;2022-10-31T14:29:28;13.90;99.90
14234;DHT22;36077;53.824;9.950;2022-10-31T14:32:05;13.90;99.90
14234;DHT22;36077;53.824;9.950;2022-10-31T14:34:38;13.90;99.90
14234;DHT22;36077;53.824;9.950;2022-10-31T14:37:18;13.90;99.90
14234;DHT22;36077;53.824;9.950;2022-10-31T14:39:56;13.80;99.90
14234;DHT22;36077;53.824;9.950;2022-10-31T14:42:40;13.80;99.90
14234;DHT22;36077;53.824;9.950;2022-10-31T14:45:22;13.80;99.90
14234;DHT22;36077;53.824;9.950;2022-10-31T14:48:02;13.80;99.90
14234;DHT22;36077;53.824;9.950;2022-10-31T14:50:41;13.80;99.90
14234;DHT22;36077;53.824;9.950;2022-10-31T14:53:14;13.80;99.90
14234;DHT22;36077;53.824;9.950;2022-10-31T14:55:48;13.80;99.90
14234;DHT22;36077;53.824;9.950;2022-10-31T14:58:19;13.70;99.90
14234;DHT22;36077;53.824;9.950;2022-10-31T15:00:54;13.70;99.90
14234;DHT22;36077;53.824;9.950;2022-10-31T15:03:25;13.70;99.90
14234;DHT22;36077;53.824;9.950;2022-10-31T15:06:04;13.60;99.90
14234;DHT22;36077;53.824;9.950;2022-10-31T15:08:35;13.60;99.90
14234;DHT22;36077;53.824;9.950;2022-10-31T15:11:10;13.60;99.90
14234;DHT22;36077;53.824;9.950;2022-10-31T15:13:42;13.50;99.90
14234;DHT22;36077;53.824;9.950;2022-10-31T15:16:12;13.50;99.90
14234;DHT22;36077;53.824;9.950;2022-10-31T15:18:53;13.50;99.90
14234;DHT22;36077;53.824;9.950;2022-10-31T15:21:22;13.50;99.90
14234;DHT22;36077;53.824;9.950;2022-10-31T15:23:51;13.50;99.90
14234;DHT22;36077;53.824;9.950;2022-10-31T15:26:20;13.50;99.90
14234;DHT22;36077;53.824;9.950;2022-10-31T15:28:58;13.50;99.90
14234;DHT22;36077;53.824;9.950;2022-10-31T15:31:26;13.50;99.90
14234;DHT22;36077;53.824;9.950;2022-10-31T15:33:55;13.40;99.90
14234;DHT22;36077;53.824;9.950;2022-10-31T15:36:25;13.40;99.90
14234;DHT22;36077;53.824;9.950;2022-10-31T15:38:52;13.40;99.90
14234;DHT22;36077;53.824;9.950;2022-10-31T15:41:26;13.40;99.90
14234;DHT22;36077;53.824;9.950;2022-10-31T15:43:56;13.40;99.90
14234;DHT22;36077;53.824;9.950;2022-10-31T15:46:26;13.40;99.90
14234;DHT22;36077;53.824;9.950;2022-10-31T15:48:53;13.40;99.90
14234;DHT22;36077;53.824;9.950;2022-10-31T15:51:26;13.40;99.90
14234;DHT22;36077;53.824;9.950;2022-10-31T15:53:55;13.40;99.90
14234;DHT22;36077;53.824;9.950;2022-10-31T15:56:23;13.40;99.90
14234;DHT22;36077;53.824;9.950;2022-10-31T15:58:52;13.30;99.90
14234;DHT22;36077;53.824;9.950;2022-10-31T16:01:22;13.30;99.90
14234;DHT22;36077;53.824;9.950;2022-10-31T16:04:05;13.30;99.90
14234;DHT22;36077;53.824;9.950;2022-10-31T16:06:58;13.30;99.90